Hauptseite
METAR-TAF:

METAR-TAF

Flughäfen :

Sligo, Irland

Breite: 54-16-49N, Länge: 8-35-57W, Höhe: 3 m

Beobachtung

Neuester Wetterbericht von vor 6 Stunden und 34 Minuten, um 17:30 UTC
Wind 4 kt aus Süd, variierte zwischen Südost und Südwest
Temperatur 11°C
Luftfeuchtigkeit 100%
Luftdruck 999 hPa
Sichtweite 10 km oder mehr
Leicht bewölkt in der Höhe von 4800 ft

METAR: EISG 231730Z 18004KT 140V220 9999 FEW048 11/11 Q0999

Zeit: 01:04 (00:04 UTC)

Prognose

Neuester Wetterbericht von vor 1 Stunde und 4 Minuten, um 23:00 UTC
Gültige Prognose vom 24 um 00 UTC bis 24 um 09 UTC
Wind 8 kt aus Süd/Südwest
Sichtweite 10 km oder mehr
Leicht bewölkt in der Höhe von 1200 ft
Durchbrochene Bewölkung in der Höhe von 2000 ft

TAF: EISG 232300Z 2400/2409 20008KT 9999 FEW012 BKN020

Wetterbeobachtungen und Prognosen von mehr als 4000 Flughäfen (METAR und TAF Bericht).

Die verfügbaren Stationen werden durch gelbe und rote Markierungen auf der Karte dargestellt.

Führen Sie die Maus auf sie, um den Namen der Station zu sehen.

Darauf klicken, um die Beobachtung von Wetterbeobachtungen und Prognosen zu sehen.

Um die Karte zu ändern : klicken Sie auf den grünen Tasten mit einem schwarzen Kreuz Zum Vergrößern, auf den grünen Button mit einem Gedankenstrich zu verkleinern, oder auf die grünen Pfeile für benachbarte Karten.


METAR-TAF: